sensor_id;sensor_type;location;lat;lon;timestamp;P1;durP1;ratioP1;P2;durP2;ratioP2
57565;SDS011;63999;43.882;-0.310;2022-12-11T00:00:49;21.35;;;15.63;;
57565;SDS011;63999;43.882;-0.310;2022-12-11T00:03:15;21.30;;;15.23;;
57565;SDS011;63999;43.882;-0.310;2022-12-11T00:05:42;23.27;;;16.42;;
57565;SDS011;63999;43.882;-0.310;2022-12-11T00:08:08;21.70;;;11.18;;
57565;SDS011;63999;43.882;-0.310;2022-12-11T00:10:34;21.23;;;16.55;;
57565;SDS011;63999;43.882;-0.310;2022-12-11T00:13:00;22.30;;;17.08;;
57565;SDS011;63999;43.882;-0.310;2022-12-11T00:15:26;19.25;;;9.93;;
57565;SDS011;63999;43.882;-0.310;2022-12-11T00:17:52;21.52;;;15.57;;
57565;SDS011;63999;43.882;-0.310;2022-12-11T00:20:18;18.42;;;10.07;;
57565;SDS011;63999;43.882;-0.310;2022-12-11T00:22:44;18.75;;;15.15;;
57565;SDS011;63999;43.882;-0.310;2022-12-11T00:25:09;20.30;;;15.73;;
57565;SDS011;63999;43.882;-0.310;2022-12-11T00:27:35;16.83;;;9.80;;
57565;SDS011;63999;43.882;-0.310;2022-12-11T00:30:01;22.05;;;15.88;;
57565;SDS011;63999;43.882;-0.310;2022-12-11T00:32:27;19.33;;;9.65;;
57565;SDS011;63999;43.882;-0.310;2022-12-11T00:34:54;18.05;;;10.15;;
57565;SDS011;63999;43.882;-0.310;2022-12-11T00:37:19;23.05;;;18.25;;
57565;SDS011;63999;43.882;-0.310;2022-12-11T00:39:45;24.08;;;11.20;;
57565;SDS011;63999;43.882;-0.310;2022-12-11T00:42:11;21.27;;;10.55;;
57565;SDS011;63999;43.882;-0.310;2022-12-11T00:44:37;20.77;;;15.73;;
57565;SDS011;63999;43.882;-0.310;2022-12-11T00:47:02;20.67;;;17.00;;
57565;SDS011;63999;43.882;-0.310;2022-12-11T00:49:28;22.00;;;16.30;;
57565;SDS011;63999;43.882;-0.310;2022-12-11T00:51:54;20.05;;;15.82;;
57565;SDS011;63999;43.882;-0.310;2022-12-11T00:54:20;19.80;;;11.68;;
57565;SDS011;63999;43.882;-0.310;2022-12-11T00:56:45;25.10;;;17.42;;
57565;SDS011;63999;43.882;-0.310;2022-12-11T00:59:11;21.60;;;15.98;;
57565;SDS011;63999;43.882;-0.310;2022-12-11T01:01:37;21.15;;;16.05;;
57565;SDS011;63999;43.882;-0.310;2022-12-11T01:04:03;21.92;;;16.02;;
57565;SDS011;63999;43.882;-0.310;2022-12-11T01:06:29;24.40;;;16.42;;
57565;SDS011;63999;43.882;-0.310;2022-12-11T01:08:55;20.52;;;11.25;;
57565;SDS011;63999;43.882;-0.310;2022-12-11T01:11:40;22.58;;;16.95;;
57565;SDS011;63999;43.882;-0.310;2022-12-11T01:14:06;20.52;;;11.23;;
57565;SDS011;63999;43.882;-0.310;2022-12-11T01:16:34;22.45;;;10.75;;
57565;SDS011;63999;43.882;-0.310;2022-12-11T01:19:00;22.83;;;16.73;;
57565;SDS011;63999;43.882;-0.310;2022-12-11T01:21:26;21.58;;;15.68;;
57565;SDS011;63999;43.882;-0.310;2022-12-11T01:23:51;23.20;;;16.90;;
57565;SDS011;63999;43.882;-0.310;2022-12-11T01:26:17;22.00;;;16.60;;
57565;SDS011;63999;43.882;-0.310;2022-12-11T01:28:43;21.02;;;10.75;;
57565;SDS011;63999;43.882;-0.310;2022-12-11T01:31:10;19.23;;;10.35;;
57565;SDS011;63999;43.882;-0.310;2022-12-11T01:33:40;17.23;;;9.88;;
57565;SDS011;63999;43.882;-0.310;2022-12-11T01:36:07;22.40;;;16.40;;
57565;SDS011;63999;43.882;-0.310;2022-12-11T01:38:35;21.70;;;15.35;;
57565;SDS011;63999;43.882;-0.310;2022-12-11T01:41:01;21.60;;;16.48;;
57565;SDS011;63999;43.882;-0.310;2022-12-11T01:43:27;22.00;;;16.13;;
57565;SDS011;63999;43.882;-0.310;2022-12-11T01:45:54;21.25;;;10.70;;
57565;SDS011;63999;43.882;-0.310;2022-12-11T01:48:21;20.35;;;10.32;;
57565;SDS011;63999;43.882;-0.310;2022-12-11T01:50:55;22.63;;;16.70;;
57565;SDS011;63999;43.882;-0.310;2022-12-11T01:53:26;18.65;;;11.30;;
57565;SDS011;63999;43.882;-0.310;2022-12-11T01:56:05;18.27;;;10.52;;
57565;SDS011;63999;43.882;-0.310;2022-12-11T01:58:33;18.33;;;10.18;;
57565;SDS011;63999;43.882;-0.310;2022-12-11T02:01:04;18.30;;;10.82;;
57565;SDS011;63999;43.882;-0.310;2022-12-11T02:03:30;23.75;;;16.60;;
57565;SDS011;63999;43.882;-0.310;2022-12-11T02:05:59;18.25;;;10.15;;
57565;SDS011;63999;43.882;-0.310;2022-12-11T02:08:26;21.83;;;15.57;;
57565;SDS011;63999;43.882;-0.310;2022-12-11T02:13:35;19.90;;;10.68;;
57565;SDS011;63999;43.882;-0.310;2022-12-11T02:16:18;19.30;;;9.80;;
57565;SDS011;63999;43.882;-0.310;2022-12-11T02:18:54;18.95;;;10.05;;
57565;SDS011;63999;43.882;-0.310;2022-12-11T02:21:47;18.45;;;10.27;;
57565;SDS011;63999;43.882;-0.310;2022-12-11T02:27:22;15.55;;;9.57;;
57565;SDS011;63999;43.882;-0.310;2022-12-11T02:32:45;21.35;;;15.77;;
57565;SDS011;63999;43.882;-0.310;2022-12-11T02:38:07;21.70;;;15.48;;
57565;SDS011;63999;43.882;-0.310;2022-12-11T02:40:39;19.80;;;15.73;;
57565;SDS011;63999;43.882;-0.310;2022-12-11T02:43:09;21.92;;;9.52;;
57565;SDS011;63999;43.882;-0.310;2022-12-11T02:45:38;19.27;;;10.00;;
57565;SDS011;63999;43.882;-0.310;2022-12-11T02:48:05;22.75;;;16.40;;
57565;SDS011;63999;43.882;-0.310;2022-12-11T02:50:35;22.63;;;17.45;;
57565;SDS011;63999;43.882;-0.310;2022-12-11T02:53:06;24.02;;;18.08;;
57565;SDS011;63999;43.882;-0.310;2022-12-11T02:55:35;23.13;;;11.93;;
57565;SDS011;63999;43.882;-0.310;2022-12-11T02:58:12;19.95;;;12.25;;
57565;SDS011;63999;43.882;-0.310;2022-12-11T03:00:42;21.92;;;16.83;;
57565;SDS011;63999;43.882;-0.310;2022-12-11T03:03:09;23.80;;;16.35;;
57565;SDS011;63999;43.882;-0.310;2022-12-11T03:05:36;15.50;;;9.27;;
57565;SDS011;63999;43.882;-0.310;2022-12-11T03:08:02;16.67;;;9.63;;
57565;SDS011;63999;43.882;-0.310;2022-12-11T03:10:28;21.25;;;15.82;;
57565;SDS011;63999;43.882;-0.310;2022-12-11T03:12:54;17.33;;;9.63;;
57565;SDS011;63999;43.882;-0.310;2022-12-11T03:15:22;21.35;;;15.93;;
57565;SDS011;63999;43.882;-0.310;2022-12-11T03:18:14;16.10;;;9.68;;
57565;SDS011;63999;43.882;-0.310;2022-12-11T03:20:53;17.83;;;10.10;;
57565;SDS011;63999;43.882;-0.310;2022-12-11T03:26:01;20.88;;;10.77;;
57565;SDS011;63999;43.882;-0.310;2022-12-11T03:28:38;16.20;;;9.38;;
57565;SDS011;63999;43.882;-0.310;2022-12-11T03:34:08;21.35;;;16.20;;
57565;SDS011;63999;43.882;-0.310;2022-12-11T03:36:42;21.27;;;15.40;;
57565;SDS011;63999;43.882;-0.310;2022-12-11T03:39:11;14.02;;;8.40;;
57565;SDS011;63999;43.882;-0.310;2022-12-11T03:41:43;20.98;;;10.30;;
57565;SDS011;63999;43.882;-0.310;2022-12-11T03:44:10;18.08;;;10.05;;
57565;SDS011;63999;43.882;-0.310;2022-12-11T03:46:38;23.42;;;15.77;;
57565;SDS011;63999;43.882;-0.310;2022-12-11T03:49:09;20.55;;;15.30;;
57565;SDS011;63999;43.882;-0.310;2022-12-11T03:51:44;19.55;;;9.25;;
57565;SDS011;63999;43.882;-0.310;2022-12-11T03:54:12;18.83;;;9.02;;
57565;SDS011;63999;43.882;-0.310;2022-12-11T03:56:39;17.60;;;9.52;;
57565;SDS011;63999;43.882;-0.310;2022-12-11T03:59:07;16.70;;;9.60;;
57565;SDS011;63999;43.882;-0.310;2022-12-11T04:01:33;20.23;;;16.55;;
57565;SDS011;63999;43.882;-0.310;2022-12-11T04:03:59;16.80;;;9.57;;
57565;SDS011;63999;43.882;-0.310;2022-12-11T04:06:25;18.20;;;9.02;;
57565;SDS011;63999;43.882;-0.310;2022-12-11T04:08:51;20.80;;;10.10;;
57565;SDS011;63999;43.882;-0.310;2022-12-11T04:11:16;15.73;;;9.55;;
57565;SDS011;63999;43.882;-0.310;2022-12-11T04:14:07;16.55;;;9.43;;
57565;SDS011;63999;43.882;-0.310;2022-12-11T04:16:54;18.25;;;14.50;;
57565;SDS011;63999;43.882;-0.310;2022-12-11T04:19:21;20.13;;;15.35;;
57565;SDS011;63999;43.882;-0.310;2022-12-11T04:22:05;16.65;;;8.82;;
57565;SDS011;63999;43.882;-0.310;2022-12-11T04:24:49;16.05;;;9.05;;
57565;SDS011;63999;43.882;-0.310;2022-12-11T04:27:15;19.02;;;14.10;;
57565;SDS011;63999;43.882;-0.310;2022-12-11T04:30:01;20.02;;;9.10;;
57565;SDS011;63999;43.882;-0.310;2022-12-11T04:32:29;20.48;;;15.48;;
57565;SDS011;63999;43.882;-0.310;2022-12-11T04:34:54;22.27;;;14.85;;
57565;SDS011;63999;43.882;-0.310;2022-12-11T04:37:20;23.55;;;17.00;;
57565;SDS011;63999;43.882;-0.310;2022-12-11T04:39:46;20.60;;;10.32;;
57565;SDS011;63999;43.882;-0.310;2022-12-11T04:42:12;18.40;;;9.93;;
57565;SDS011;63999;43.882;-0.310;2022-12-11T04:44:37;19.58;;;8.93;;
57565;SDS011;63999;43.882;-0.310;2022-12-11T04:47:03;19.10;;;10.13;;
57565;SDS011;63999;43.882;-0.310;2022-12-11T04:49:29;18.15;;;14.18;;
57565;SDS011;63999;43.882;-0.310;2022-12-11T04:51:55;21.05;;;15.20;;
57565;SDS011;63999;43.882;-0.310;2022-12-11T04:54:20;16.42;;;9.00;;
57565;SDS011;63999;43.882;-0.310;2022-12-11T04:56:46;14.75;;;8.30;;
57565;SDS011;63999;43.882;-0.310;2022-12-11T04:59:12;17.58;;;9.18;;
57565;SDS011;63999;43.882;-0.310;2022-12-11T05:01:38;15.73;;;9.48;;
57565;SDS011;63999;43.882;-0.310;2022-12-11T05:04:03;20.60;;;14.52;;
57565;SDS011;63999;43.882;-0.310;2022-12-11T05:06:29;16.98;;;8.85;;
57565;SDS011;63999;43.882;-0.310;2022-12-11T05:08:55;15.63;;;8.85;;
57565;SDS011;63999;43.882;-0.310;2022-12-11T05:11:21;17.25;;;8.90;;
57565;SDS011;63999;43.882;-0.310;2022-12-11T05:13:46;16.48;;;9.02;;
57565;SDS011;63999;43.882;-0.310;2022-12-11T05:16:14;15.70;;;9.13;;
57565;SDS011;63999;43.882;-0.310;2022-12-11T05:18:40;15.55;;;8.57;;
57565;SDS011;63999;43.882;-0.310;2022-12-11T05:21:08;14.18;;;8.32;;
57565;SDS011;63999;43.882;-0.310;2022-12-11T05:23:36;15.45;;;8.85;;
57565;SDS011;63999;43.882;-0.310;2022-12-11T05:26:03;19.00;;;13.93;;
57565;SDS011;63999;43.882;-0.310;2022-12-11T05:28:31;18.08;;;13.45;;
57565;SDS011;63999;43.882;-0.310;2022-12-11T05:31:00;14.05;;;8.23;;
57565;SDS011;63999;43.882;-0.310;2022-12-11T05:33:30;17.45;;;13.25;;
57565;SDS011;63999;43.882;-0.310;2022-12-11T05:35:56;18.60;;;13.50;;
57565;SDS011;63999;43.882;-0.310;2022-12-11T05:38:22;14.38;;;8.15;;
57565;SDS011;63999;43.882;-0.310;2022-12-11T05:40:55;13.88;;;7.97;;
57565;SDS011;63999;43.882;-0.310;2022-12-11T05:43:22;12.45;;;7.55;;
57565;SDS011;63999;43.882;-0.310;2022-12-11T05:45:47;14.15;;;7.90;;
57565;SDS011;63999;43.882;-0.310;2022-12-11T05:48:13;14.43;;;8.02;;
57565;SDS011;63999;43.882;-0.310;2022-12-11T05:50:39;13.20;;;7.88;;
57565;SDS011;63999;43.882;-0.310;2022-12-11T05:53:04;16.85;;;12.90;;
57565;SDS011;63999;43.882;-0.310;2022-12-11T05:55:33;16.60;;;12.40;;
57565;SDS011;63999;43.882;-0.310;2022-12-11T05:57:59;15.68;;;12.13;;
57565;SDS011;63999;43.882;-0.310;2022-12-11T06:00:24;16.50;;;12.07;;
57565;SDS011;63999;43.882;-0.310;2022-12-11T06:02:50;13.55;;;7.82;;
57565;SDS011;63999;43.882;-0.310;2022-12-11T06:05:16;16.38;;;9.05;;
57565;SDS011;63999;43.882;-0.310;2022-12-11T06:07:42;16.67;;;8.05;;
57565;SDS011;63999;43.882;-0.310;2022-12-11T06:10:07;12.27;;;7.18;;
57565;SDS011;63999;43.882;-0.310;2022-12-11T06:12:34;11.88;;;6.85;;
57565;SDS011;63999;43.882;-0.310;2022-12-11T06:15:00;15.25;;;11.65;;
57565;SDS011;63999;43.882;-0.310;2022-12-11T06:17:26;12.23;;;7.30;;
57565;SDS011;63999;43.882;-0.310;2022-12-11T06:19:51;12.45;;;7.35;;
57565;SDS011;63999;43.882;-0.310;2022-12-11T06:22:17;11.63;;;7.03;;
57565;SDS011;63999;43.882;-0.310;2022-12-11T06:24:43;11.80;;;6.85;;
57565;SDS011;63999;43.882;-0.310;2022-12-11T06:27:08;14.50;;;7.18;;
57565;SDS011;63999;43.882;-0.310;2022-12-11T06:29:34;14.02;;;7.78;;
57565;SDS011;63999;43.882;-0.310;2022-12-11T06:32:00;14.60;;;7.53;;
57565;SDS011;63999;43.882;-0.310;2022-12-11T06:34:26;13.63;;;7.60;;
57565;SDS011;63999;43.882;-0.310;2022-12-11T06:36:52;19.40;;;11.52;;
57565;SDS011;63999;43.882;-0.310;2022-12-11T06:39:17;13.25;;;7.13;;
57565;SDS011;63999;43.882;-0.310;2022-12-11T06:41:43;14.18;;;7.40;;
57565;SDS011;63999;43.882;-0.310;2022-12-11T06:44:09;11.82;;;7.07;;
57565;SDS011;63999;43.882;-0.310;2022-12-11T06:46:34;12.15;;;7.78;;
57565;SDS011;63999;43.882;-0.310;2022-12-11T06:49:00;12.95;;;8.23;;
57565;SDS011;63999;43.882;-0.310;2022-12-11T06:51:26;12.63;;;7.68;;
57565;SDS011;63999;43.882;-0.310;2022-12-11T06:53:55;15.40;;;11.02;;
57565;SDS011;63999;43.882;-0.310;2022-12-11T06:56:21;14.30;;;11.43;;
57565;SDS011;63999;43.882;-0.310;2022-12-11T06:58:48;12.07;;;6.75;;
57565;SDS011;63999;43.882;-0.310;2022-12-11T07:03:44;12.05;;;6.00;;
57565;SDS011;63999;43.882;-0.310;2022-12-11T07:06:10;11.70;;;7.28;;
57565;SDS011;63999;43.882;-0.310;2022-12-11T07:08:37;12.88;;;6.85;;
57565;SDS011;63999;43.882;-0.310;2022-12-11T07:11:08;12.82;;;7.00;;
57565;SDS011;63999;43.882;-0.310;2022-12-11T07:13:36;14.40;;;7.90;;
57565;SDS011;63999;43.882;-0.310;2022-12-11T07:16:03;15.70;;;12.18;;
57565;SDS011;63999;43.882;-0.310;2022-12-11T07:18:34;13.87;;;6.73;;
57565;SDS011;63999;43.882;-0.310;2022-12-11T07:21:02;14.50;;;7.35;;
57565;SDS011;63999;43.882;-0.310;2022-12-11T07:23:28;12.65;;;7.18;;
57565;SDS011;63999;43.882;-0.310;2022-12-11T07:25:55;11.68;;;6.93;;
57565;SDS011;63999;43.882;-0.310;2022-12-11T07:28:21;20.13;;;9.27;;
57565;SDS011;63999;43.882;-0.310;2022-12-11T07:30:47;24.38;;;11.10;;
57565;SDS011;63999;43.882;-0.310;2022-12-11T07:33:13;17.17;;;9.15;;
57565;SDS011;63999;43.882;-0.310;2022-12-11T07:35:39;23.17;;;11.02;;
57565;SDS011;63999;43.882;-0.310;2022-12-11T07:38:05;27.40;;;12.52;;
57565;SDS011;63999;43.882;-0.310;2022-12-11T07:40:32;23.58;;;12.13;;
57565;SDS011;63999;43.882;-0.310;2022-12-11T07:42:58;25.60;;;11.35;;
57565;SDS011;63999;43.882;-0.310;2022-12-11T07:45:24;15.07;;;8.48;;
57565;SDS011;63999;43.882;-0.310;2022-12-11T07:47:53;16.75;;;8.75;;
57565;SDS011;63999;43.882;-0.310;2022-12-11T07:50:19;17.38;;;12.63;;
57565;SDS011;63999;43.882;-0.310;2022-12-11T07:52:45;15.82;;;7.32;;
57565;SDS011;63999;43.882;-0.310;2022-12-11T07:55:11;12.88;;;7.15;;
57565;SDS011;63999;43.882;-0.310;2022-12-11T07:57:36;13.07;;;6.47;;
57565;SDS011;63999;43.882;-0.310;2022-12-11T08:00:03;13.75;;;6.95;;
57565;SDS011;63999;43.882;-0.310;2022-12-11T08:02:29;16.33;;;10.95;;
57565;SDS011;63999;43.882;-0.310;2022-12-11T08:04:55;17.10;;;11.57;;
57565;SDS011;63999;43.882;-0.310;2022-12-11T08:07:21;10.85;;;5.90;;
57565;SDS011;63999;43.882;-0.310;2022-12-11T08:09:46;12.88;;;6.43;;
57565;SDS011;63999;43.882;-0.310;2022-12-11T08:12:12;11.43;;;6.57;;
57565;SDS011;63999;43.882;-0.310;2022-12-11T08:14:38;14.30;;;6.20;;
57565;SDS011;63999;43.882;-0.310;2022-12-11T08:17:04;11.65;;;6.22;;
57565;SDS011;63999;43.882;-0.310;2022-12-11T08:19:29;12.02;;;6.82;;
57565;SDS011;63999;43.882;-0.310;2022-12-11T08:21:57;11.35;;;6.85;;
57565;SDS011;63999;43.882;-0.310;2022-12-11T08:24:26;11.77;;;6.15;;
57565;SDS011;63999;43.882;-0.310;2022-12-11T08:26:56;10.88;;;6.57;;
57565;SDS011;63999;43.882;-0.310;2022-12-11T08:29:31;11.20;;;6.05;;
57565;SDS011;63999;43.882;-0.310;2022-12-11T08:31:57;13.05;;;6.15;;
57565;SDS011;63999;43.882;-0.310;2022-12-11T08:34:24;13.60;;;9.43;;
57565;SDS011;63999;43.882;-0.310;2022-12-11T08:36:50;14.48;;;10.32;;
57565;SDS011;63999;43.882;-0.310;2022-12-11T08:39:16;11.48;;;6.32;;
57565;SDS011;63999;43.882;-0.310;2022-12-11T08:41:42;430.73;;;46.95;;
57565;SDS011;63999;43.882;-0.310;2022-12-11T08:44:10;181.50;;;22.30;;
57565;SDS011;63999;43.882;-0.310;2022-12-11T08:46:36;71.70;;;10.93;;
57565;SDS011;63999;43.882;-0.310;2022-12-11T08:49:02;11.35;;;6.55;;
57565;SDS011;63999;43.882;-0.310;2022-12-11T08:51:29;9.57;;;5.90;;
57565;SDS011;63999;43.882;-0.310;2022-12-11T08:53:58;11.98;;;6.93;;
57565;SDS011;63999;43.882;-0.310;2022-12-11T08:56:25;15.82;;;10.90;;
57565;SDS011;63999;43.882;-0.310;2022-12-11T08:58:52;13.57;;;7.80;;
57565;SDS011;63999;43.882;-0.310;2022-12-11T09:01:19;19.42;;;15.18;;
57565;SDS011;63999;43.882;-0.310;2022-12-11T09:03:47;12.65;;;7.30;;
57565;SDS011;63999;43.882;-0.310;2022-12-11T09:06:14;22.77;;;7.30;;
57565;SDS011;63999;43.882;-0.310;2022-12-11T09:08:42;12.70;;;6.85;;
57565;SDS011;63999;43.882;-0.310;2022-12-11T09:11:11;10.93;;;6.75;;
57565;SDS011;63999;43.882;-0.310;2022-12-11T09:13:39;14.18;;;8.02;;
57565;SDS011;63999;43.882;-0.310;2022-12-11T09:16:06;13.50;;;7.78;;
57565;SDS011;63999;43.882;-0.310;2022-12-11T09:18:33;15.30;;;6.93;;
57565;SDS011;63999;43.882;-0.310;2022-12-11T09:21:01;15.77;;;7.40;;
57565;SDS011;63999;43.882;-0.310;2022-12-11T09:23:29;27.00;;;11.25;;
57565;SDS011;63999;43.882;-0.310;2022-12-11T09:25:55;21.13;;;10.73;;
57565;SDS011;63999;43.882;-0.310;2022-12-11T09:28:21;25.05;;;11.45;;
57565;SDS011;63999;43.882;-0.310;2022-12-11T09:30:48;23.42;;;16.80;;
57565;SDS011;63999;43.882;-0.310;2022-12-11T09:33:14;15.52;;;8.13;;
57565;SDS011;63999;43.882;-0.310;2022-12-11T09:35:40;13.95;;;8.10;;
57565;SDS011;63999;43.882;-0.310;2022-12-11T09:38:07;13.50;;;7.03;;
57565;SDS011;63999;43.882;-0.310;2022-12-11T09:40:38;11.77;;;7.10;;
57565;SDS011;63999;43.882;-0.310;2022-12-11T09:43:18;15.30;;;11.32;;
57565;SDS011;63999;43.882;-0.310;2022-12-11T09:45:52;14.60;;;7.22;;
57565;SDS011;63999;43.882;-0.310;2022-12-11T09:48:20;13.93;;;7.13;;
57565;SDS011;63999;43.882;-0.310;2022-12-11T09:50:50;12.45;;;6.35;;
57565;SDS011;63999;43.882;-0.310;2022-12-11T10:03:35;15.75;;;11.82;;
57565;SDS011;63999;43.882;-0.310;2022-12-11T10:14:05;9.13;;;5.57;;
57565;SDS011;63999;43.882;-0.310;2022-12-11T10:19:34;11.45;;;6.65;;
57565;SDS011;63999;43.882;-0.310;2022-12-11T10:22:00;13.20;;;9.63;;
57565;SDS011;63999;43.882;-0.310;2022-12-11T10:27:11;13.82;;;9.88;;
57565;SDS011;63999;43.882;-0.310;2022-12-11T10:29:40;10.60;;;7.00;;
57565;SDS011;63999;43.882;-0.310;2022-12-11T10:32:06;10.48;;;6.85;;
57565;SDS011;63999;43.882;-0.310;2022-12-11T10:35:01;10.60;;;6.30;;
57565;SDS011;63999;43.882;-0.310;2022-12-11T10:37:30;10.50;;;5.82;;
57565;SDS011;63999;43.882;-0.310;2022-12-11T10:39:55;11.65;;;9.32;;
57565;SDS011;63999;43.882;-0.310;2022-12-11T10:42:21;9.20;;;5.93;;
57565;SDS011;63999;43.882;-0.310;2022-12-11T10:44:58;12.30;;;6.97;;
57565;SDS011;63999;43.882;-0.310;2022-12-11T10:47:25;9.80;;;5.70;;
57565;SDS011;63999;43.882;-0.310;2022-12-11T10:50:00;9.00;;;5.43;;
57565;SDS011;63999;43.882;-0.310;2022-12-11T10:52:31;9.88;;;6.18;;
57565;SDS011;63999;43.882;-0.310;2022-12-11T10:58:04;10.10;;;5.50;;
57565;SDS011;63999;43.882;-0.310;2022-12-11T11:03:02;9.57;;;5.30;;
57565;SDS011;63999;43.882;-0.310;2022-12-11T11:05:31;11.10;;;7.90;;
57565;SDS011;63999;43.882;-0.310;2022-12-11T11:08:15;11.30;;;8.30;;
57565;SDS011;63999;43.882;-0.310;2022-12-11T11:11:04;8.80;;;5.22;;
57565;SDS011;63999;43.882;-0.310;2022-12-11T11:13:30;10.02;;;6.35;;
57565;SDS011;63999;43.882;-0.310;2022-12-11T11:16:01;11.13;;;6.93;;
57565;SDS011;63999;43.882;-0.310;2022-12-11T11:18:36;7.03;;;4.28;;
57565;SDS011;63999;43.882;-0.310;2022-12-11T11:21:05;8.32;;;4.50;;
57565;SDS011;63999;43.882;-0.310;2022-12-11T11:23:41;7.20;;;5.88;;
57565;SDS011;63999;43.882;-0.310;2022-12-11T11:26:07;6.63;;;3.63;;
57565;SDS011;63999;43.882;-0.310;2022-12-11T11:28:35;6.65;;;3.67;;
57565;SDS011;63999;43.882;-0.310;2022-12-11T11:36:27;18.00;;;6.90;;
57565;SDS011;63999;43.882;-0.310;2022-12-11T11:41:33;14.52;;;7.00;;
57565;SDS011;63999;43.882;-0.310;2022-12-11T11:44:09;9.23;;;4.78;;
57565;SDS011;63999;43.882;-0.310;2022-12-11T11:46:43;6.80;;;4.13;;
57565;SDS011;63999;43.882;-0.310;2022-12-11T11:49:39;11.80;;;9.15;;
57565;SDS011;63999;43.882;-0.310;2022-12-11T11:52:16;8.65;;;4.78;;
57565;SDS011;63999;43.882;-0.310;2022-12-11T11:54:53;10.02;;;6.78;;
57565;SDS011;63999;43.882;-0.310;2022-12-11T12:00:22;5.93;;;3.53;;
57565;SDS011;63999;43.882;-0.310;2022-12-11T12:02:56;8.15;;;4.15;;
57565;SDS011;63999;43.882;-0.310;2022-12-11T12:05:42;9.45;;;4.95;;
57565;SDS011;63999;43.882;-0.310;2022-12-11T12:08:50;12.50;;;4.43;;
57565;SDS011;63999;43.882;-0.310;2022-12-11T12:11:29;7.15;;;4.03;;
57565;SDS011;63999;43.882;-0.310;2022-12-11T12:16:58;9.63;;;3.90;;
57565;SDS011;63999;43.882;-0.310;2022-12-11T12:21:54;6.85;;;5.32;;
57565;SDS011;63999;43.882;-0.310;2022-12-11T12:27:17;6.25;;;3.58;;
57565;SDS011;63999;43.882;-0.310;2022-12-11T12:38:04;5.40;;;2.92;;
57565;SDS011;63999;43.882;-0.310;2022-12-11T12:40:39;6.85;;;3.42;;
57565;SDS011;63999;43.882;-0.310;2022-12-11T12:48:59;4.88;;;2.70;;
57565;SDS011;63999;43.882;-0.310;2022-12-11T12:51:26;6.53;;;4.70;;
57565;SDS011;63999;43.882;-0.310;2022-12-11T12:53:57;7.18;;;4.70;;
57565;SDS011;63999;43.882;-0.310;2022-12-11T12:56:28;6.15;;;4.13;;
57565;SDS011;63999;43.882;-0.310;2022-12-11T12:58:56;7.45;;;4.30;;
57565;SDS011;63999;43.882;-0.310;2022-12-11T13:01:24;6.70;;;4.55;;
57565;SDS011;63999;43.882;-0.310;2022-12-11T13:03:55;6.20;;;3.33;;
57565;SDS011;63999;43.882;-0.310;2022-12-11T13:06:27;7.25;;;4.60;;
57565;SDS011;63999;43.882;-0.310;2022-12-11T13:08:55;5.97;;;2.70;;
57565;SDS011;63999;43.882;-0.310;2022-12-11T13:11:29;7.40;;;4.20;;
57565;SDS011;63999;43.882;-0.310;2022-12-11T13:14:05;5.78;;;4.05;;
57565;SDS011;63999;43.882;-0.310;2022-12-11T13:16:47;5.13;;;2.80;;
57565;SDS011;63999;43.882;-0.310;2022-12-11T13:19:16;9.10;;;6.28;;
57565;SDS011;63999;43.882;-0.310;2022-12-11T13:24:47;9.70;;;5.95;;
57565;SDS011;63999;43.882;-0.310;2022-12-11T13:30:03;5.90;;;4.32;;
57565;SDS011;63999;43.882;-0.310;2022-12-11T13:32:38;4.85;;;2.70;;
57565;SDS011;63999;43.882;-0.310;2022-12-11T13:35:14;12.27;;;9.07;;
57565;SDS011;63999;43.882;-0.310;2022-12-11T13:37:44;8.13;;;5.40;;
57565;SDS011;63999;43.882;-0.310;2022-12-11T13:42:53;5.80;;;2.70;;
57565;SDS011;63999;43.882;-0.310;2022-12-11T13:45:22;4.50;;;3.40;;
57565;SDS011;63999;43.882;-0.310;2022-12-11T13:47:50;5.82;;;3.60;;
57565;SDS011;63999;43.882;-0.310;2022-12-11T13:50:20;5.15;;;3.85;;
57565;SDS011;63999;43.882;-0.310;2022-12-11T13:52:59;5.55;;;3.45;;
57565;SDS011;63999;43.882;-0.310;2022-12-11T13:55:27;5.60;;;2.90;;
57565;SDS011;63999;43.882;-0.310;2022-12-11T13:57:55;6.22;;;3.90;;
57565;SDS011;63999;43.882;-0.310;2022-12-11T14:00:26;4.93;;;3.80;;
57565;SDS011;63999;43.882;-0.310;2022-12-11T14:02:59;6.20;;;4.60;;
57565;SDS011;63999;43.882;-0.310;2022-12-11T14:05:37;6.05;;;3.78;;
57565;SDS011;63999;43.882;-0.310;2022-12-11T14:11:35;5.63;;;3.38;;
57565;SDS011;63999;43.882;-0.310;2022-12-11T14:14:23;4.82;;;3.05;;
57565;SDS011;63999;43.882;-0.310;2022-12-11T14:17:05;5.50;;;3.90;;
57565;SDS011;63999;43.882;-0.310;2022-12-11T14:19:43;5.80;;;3.63;;
57565;SDS011;63999;43.882;-0.310;2022-12-11T14:22:17;4.53;;;2.63;;
57565;SDS011;63999;43.882;-0.310;2022-12-11T14:24:48;5.30;;;4.10;;
57565;SDS011;63999;43.882;-0.310;2022-12-11T14:27:16;5.05;;;3.78;;
57565;SDS011;63999;43.882;-0.310;2022-12-11T14:29:43;6.97;;;4.30;;
57565;SDS011;63999;43.882;-0.310;2022-12-11T14:32:12;4.63;;;3.65;;
57565;SDS011;63999;43.882;-0.310;2022-12-11T14:34:44;4.88;;;3.75;;
57565;SDS011;63999;43.882;-0.310;2022-12-11T14:37:15;5.43;;;3.70;;
57565;SDS011;63999;43.882;-0.310;2022-12-11T14:39:43;5.88;;;3.90;;
57565;SDS011;63999;43.882;-0.310;2022-12-11T14:42:27;8.55;;;5.47;;
57565;SDS011;63999;43.882;-0.310;2022-12-11T14:45:04;7.15;;;5.43;;
57565;SDS011;63999;43.882;-0.310;2022-12-11T14:47:38;6.45;;;4.47;;
57565;SDS011;63999;43.882;-0.310;2022-12-11T14:50:38;6.72;;;4.68;;
57565;SDS011;63999;43.882;-0.310;2022-12-11T14:53:54;6.10;;;2.88;;
57565;SDS011;63999;43.882;-0.310;2022-12-11T14:56:05;6.40;;;4.72;;
57565;SDS011;63999;43.882;-0.310;2022-12-11T15:01:31;5.25;;;3.90;;
57565;SDS011;63999;43.882;-0.310;2022-12-11T15:04:21;5.57;;;2.90;;
57565;SDS011;63999;43.882;-0.310;2022-12-11T15:06:51;7.35;;;4.28;;
57565;SDS011;63999;43.882;-0.310;2022-12-11T15:09:20;5.72;;;4.80;;
57565;SDS011;63999;43.882;-0.310;2022-12-11T15:11:48;5.45;;;3.78;;
57565;SDS011;63999;43.882;-0.310;2022-12-11T15:14:19;5.85;;;3.60;;
57565;SDS011;63999;43.882;-0.310;2022-12-11T15:16:51;6.30;;;3.70;;
57565;SDS011;63999;43.882;-0.310;2022-12-11T15:19:23;4.47;;;2.47;;
57565;SDS011;63999;43.882;-0.310;2022-12-11T15:22:06;8.35;;;5.78;;
57565;SDS011;63999;43.882;-0.310;2022-12-11T15:24:37;7.53;;;5.03;;
57565;SDS011;63999;43.882;-0.310;2022-12-11T15:27:22;9.45;;;5.47;;
57565;SDS011;63999;43.882;-0.310;2022-12-11T15:29:55;6.20;;;4.30;;
57565;SDS011;63999;43.882;-0.310;2022-12-11T15:32:23;5.80;;;3.33;;
57565;SDS011;63999;43.882;-0.310;2022-12-11T15:34:50;4.45;;;3.53;;
57565;SDS011;63999;43.882;-0.310;2022-12-11T15:37:29;6.13;;;3.97;;
57565;SDS011;63999;43.882;-0.310;2022-12-11T15:39:57;6.38;;;4.13;;
57565;SDS011;63999;43.882;-0.310;2022-12-11T15:42:29;5.47;;;3.80;;
57565;SDS011;63999;43.882;-0.310;2022-12-11T15:45:00;9.38;;;4.22;;
57565;SDS011;63999;43.882;-0.310;2022-12-11T15:47:30;5.47;;;2.72;;
57565;SDS011;63999;43.882;-0.310;2022-12-11T15:52:41;9.50;;;4.70;;
57565;SDS011;63999;43.882;-0.310;2022-12-11T15:55:10;9.50;;;5.35;;
57565;SDS011;63999;43.882;-0.310;2022-12-11T15:57:36;6.63;;;3.88;;
57565;SDS011;63999;43.882;-0.310;2022-12-11T16:00:04;8.50;;;6.55;;
57565;SDS011;63999;43.882;-0.310;2022-12-11T16:02:31;12.10;;;7.03;;
57565;SDS011;63999;43.882;-0.310;2022-12-11T16:04:57;6.70;;;4.63;;
57565;SDS011;63999;43.882;-0.310;2022-12-11T16:07:23;5.40;;;2.83;;
57565;SDS011;63999;43.882;-0.310;2022-12-11T16:09:50;5.20;;;3.92;;
57565;SDS011;63999;43.882;-0.310;2022-12-11T16:12:17;4.13;;;3.22;;
57565;SDS011;63999;43.882;-0.310;2022-12-11T16:14:43;10.98;;;6.47;;